Time;durP1;ratioP1;P1;durP2;ratioP2;P2;SDS_P1;SDS_P2;PMS_P1;PMS_P2;Temp;Humidity;BMP_temperature;BMP_pressure;BME280_temperature;BME280_humidity;BME280_pressure;Samples;Min_cycle;Max_cycle;Signal;HPM_P1;HPM_P2
2023/03/30 00:01:20;;;;;;;39.30;19.85;;;;;;;8.41;56.46;100550.69;4978919;28;20034;-74
2023/03/30 00:03:46;;;;;;;35.80;18.88;;;;;;;8.28;57.65;100552.03;4980589;28;20037;-73
2023/03/30 00:06:20;;;;;;;30.45;18.10;;;;;;;8.26;57.46;100551.22;4977849;28;20502;-75
2023/03/30 00:08:47;;;;;;;34.72;19.27;;;;;;;8.60;56.28;100547.41;4977722;28;20073;-74
2023/03/30 00:11:14;;;;;;;28.63;18.30;;;;;;;8.51;56.67;100536.41;4978563;28;20037;-74
2023/03/30 00:13:41;;;;;;;36.78;19.90;;;;;;;8.31;57.33;100547.53;4971536;28;20046;-74
2023/03/30 00:16:11;;;;;;;32.63;19.13;;;;;;;8.19;57.77;100555.81;4983880;28;20041;-73
2023/03/30 00:18:38;;;;;;;32.88;19.17;;;;;;;8.04;58.11;100551.13;4980251;28;20720;-73
2023/03/30 00:21:05;;;;;;;32.10;18.33;;;;;;;8.28;57.55;100542.44;4975908;28;20148;-69
2023/03/30 00:23:31;;;;;;;32.97;19.23;;;;;;;8.34;57.38;100549.22;4974665;28;20061;-68
2023/03/30 00:25:56;;;;;;;33.38;18.40;;;;;;;8.06;58.31;100534.53;4977797;28;20435;-68
2023/03/30 00:28:23;;;;;;;29.50;17.77;;;;;;;8.31;57.57;100510.25;4973859;28;20129;-69
2023/03/30 00:30:49;;;;;;;34.35;19.40;;;;;;;8.19;58.28;100502.88;4978510;28;20037;-68
2023/03/30 00:33:15;;;;;;;30.17;18.15;;;;;;;8.21;58.23;100491.50;4977969;28;20121;-69
2023/03/30 00:35:40;;;;;;;32.42;17.90;;;;;;;8.37;57.79;100483.97;4976270;28;20034;-67
2023/03/30 00:38:06;;;;;;;33.58;18.65;;;;;;;8.07;58.60;100481.59;4982786;28;20054;-71
2023/03/30 00:40:33;;;;;;;30.65;17.08;;;;;;;8.12;58.91;100492.69;4992621;28;20201;-75
2023/03/30 00:43:06;;;;;;;31.52;18.80;;;;;;;8.36;57.93;100474.50;4990363;28;20077;-79
2023/03/30 00:45:35;;;;;;;31.27;18.13;;;;;;;8.41;57.59;100461.28;4982215;28;20518;-75
2023/03/30 00:48:14;;;;;;;26.52;16.13;;;;;;;8.46;57.65;100457.59;4982547;28;20054;-71
2023/03/30 00:50:52;;;;;;;32.42;18.33;;;;;;;8.45;57.88;100452.44;4967898;28;20466;-74
2023/03/30 00:53:28;;;;;;;31.52;17.92;;;;;;;8.46;57.85;100452.38;4974519;28;20052;-74
2023/03/30 00:55:56;;;;;;;34.33;18.55;;;;;;;8.51;57.44;100453.03;4978165;28;20034;-74
2023/03/30 00:58:23;;;;;;;32.47;19.42;;;;;;;8.35;57.98;100436.31;4980481;28;20049;-75
2023/03/30 01:00:51;;;;;;;36.60;18.98;;;;;;;8.33;57.96;100436.38;5000508;28;20030;-74
2023/03/30 01:03:31;;;;;;;30.60;17.33;;;;;;;8.38;57.93;100425.78;4977765;28;20139;-74
2023/03/30 01:05:59;;;;;;;31.38;16.77;;;;;;;8.31;58.35;100421.72;4983938;28;20104;-74
2023/03/30 01:08:31;;;;;;;36.95;18.70;;;;;;;8.41;57.71;100412.66;4977787;28;20049;-74
2023/03/30 01:11:00;;;;;;;26.20;16.10;;;;;;;8.37;57.85;100408.47;4981890;28;20067;-75
2023/03/30 01:13:27;;;;;;;31.23;16.95;;;;;;;8.43;57.61;100391.78;4979137;28;20059;-74
2023/03/30 01:16:01;;;;;;;28.45;17.92;;;;;;;8.28;58.41;100388.84;4987882;28;20080;-74
2023/03/30 01:18:57;;;;;;;29.13;16.48;;;;;;;8.40;57.97;100371.88;4980772;28;20041;-73
2023/03/30 01:22:03;;;;;;;35.38;17.15;;;;;;;8.45;57.93;100359.53;4997716;28;20040;-69
2023/03/30 01:24:41;;;;;;;33.47;16.80;;;;;;;8.33;58.25;100370.44;4986682;28;20041;-68
2023/03/30 01:27:38;;;;;;;27.92;16.88;;;;;;;8.45;57.67;100354.34;4990316;28;20282;-69
2023/03/30 01:30:11;;;;;;;29.58;15.65;;;;;;;8.49;57.63;100353.28;4979949;28;20627;-69
2023/03/30 01:33:16;;;;;;;25.38;15.88;;;;;;;8.33;58.40;100349.59;4983502;28;20353;-69
2023/03/30 01:36:03;;;;;;;29.25;16.33;;;;;;;8.54;57.70;100353.97;4944222;28;20133;-69
2023/03/30 01:38:54;;;;;;;28.38;15.60;;;;;;;8.32;58.66;100342.72;4961074;28;20045;-68
2023/03/30 01:41:40;;;;;;;28.17;15.90;;;;;;;8.51;57.89;100332.41;4977601;28;20240;-70
2023/03/30 01:44:31;;;;;;;28.23;16.38;;;;;;;8.59;57.56;100329.50;4979250;28;20049;-70
2023/03/30 01:47:06;;;;;;;23.35;14.93;;;;;;;8.50;58.02;100331.56;4981929;28;20125;-69
2023/03/30 01:49:41;;;;;;;26.60;16.73;;;;;;;8.52;57.80;100329.75;4981873;28;20117;-69
2023/03/30 01:52:27;;;;;;;27.33;15.73;;;;;;;8.28;58.58;100325.50;4975872;28;20034;-71
2023/03/30 01:55:01;;;;;;;28.15;16.48;;;;;;;8.25;58.67;100323.00;4995961;28;20038;-71
2023/03/30 01:57:36;;;;;;;30.98;16.15;;;;;;;8.56;58.00;100330.44;4976794;28;20494;-72
2023/03/30 02:00:16;;;;;;;24.52;14.10;;;;;;;8.65;57.63;100318.81;4978004;28;20049;-71
2023/03/30 02:02:53;;;;;;;23.92;14.80;;;;;;;8.44;58.32;100316.16;4980264;28;20100;-72
2023/03/30 02:05:21;;;;;;;30.42;15.73;;;;;;;8.62;57.22;100303.31;4976488;28;20034;-72
2023/03/30 02:07:53;;;;;;;28.45;15.07;;;;;;;8.64;57.40;100304.94;4994081;28;20373;-72
2023/03/30 02:10:22;;;;;;;25.65;14.85;;;;;;;8.56;57.68;100288.75;4960345;28;20596;-73
2023/03/30 02:12:49;;;;;;;30.23;15.73;;;;;;;8.64;57.14;100293.69;4978126;28;20048;-73
2023/03/30 02:15:17;;;;;;;23.48;13.75;;;;;;;8.60;57.33;100279.09;4978717;28;20033;-73
2023/03/30 02:17:46;;;;;;;28.02;15.43;;;;;;;8.57;57.49;100283.50;4966153;28;20753;-72
2023/03/30 02:20:12;;;;;;;26.17;13.80;;;;;;;8.62;57.28;100288.53;4983453;28;20041;-72
2023/03/30 02:22:38;;;;;;;25.67;13.80;;;;;;;8.59;57.58;100287.81;4979944;28;20565;-71
2023/03/30 02:25:05;;;;;;;27.95;14.77;;;;;;;8.41;58.27;100292.84;4978538;28;20033;-70
2023/03/30 02:27:32;;;;;;;27.17;14.25;;;;;;;8.59;57.41;100282.59;4974445;28;20053;-71
2023/03/30 02:29:58;;;;;;;23.42;13.05;;;;;;;8.60;57.06;100277.31;4995650;28;20030;-72
2023/03/30 02:32:31;;;;;;;24.98;14.27;;;;;;;8.65;56.93;100259.75;4978097;28;20109;-71
2023/03/30 02:35:15;;;;;;;24.83;14.50;;;;;;;8.70;56.59;100249.97;4982511;28;20042;-71
2023/03/30 02:38:22;;;;;;;25.65;14.20;;;;;;;8.56;57.24;100255.78;4982205;28;20042;-72
2023/03/30 02:41:00;;;;;;;22.33;12.82;;;;;;;8.66;56.85;100247.56;4995808;28;20187;-70
2023/03/30 02:43:33;;;;;;;30.05;13.77;;;;;;;8.51;56.90;100249.88;4996464;28;20048;-72
2023/03/30 02:46:25;;;;;;;26.73;13.88;;;;;;;8.53;57.43;100250.66;4984391;28;20050;-70
2023/03/30 02:49:15;;;;;;;24.38;13.68;;;;;;;8.54;56.88;100235.91;4954738;28;20065;-73
2023/03/30 02:52:00;;;;;;;23.30;12.90;;;;;;;8.43;57.51;100238.13;4981231;28;20033;-72
2023/03/30 02:55:01;;;;;;;24.45;13.45;;;;;;;8.03;58.89;100244.94;4982612;28;20538;-71
2023/03/30 02:58:11;;;;;;;21.95;13.13;;;;;;;8.36;57.80;100250.53;4979440;28;20900;-70
2023/03/30 03:01:12;;;;;;;21.00;12.20;;;;;;;8.59;56.94;100230.50;4967340;28;20038;-70
2023/03/30 03:03:52;;;;;;;19.85;11.25;;;;;;;8.55;56.68;100222.81;4952309;28;20037;-70
2023/03/30 03:06:19;;;;;;;22.70;13.45;;;;;;;8.35;57.67;100225.41;4982985;28;20510;-69
2023/03/30 03:08:49;;;;;;;17.80;12.18;;;;;;;8.54;56.85;100225.50;4981196;28;20040;-71
2023/03/30 03:11:22;;;;;;;26.20;12.57;;;;;;;8.69;56.87;100226.59;4982253;28;20125;-70
2023/03/30 03:13:48;;;;;;;20.45;12.75;;;;;;;8.63;56.83;100225.09;4991129;28;20470;-69
2023/03/30 03:16:15;;;;;;;17.77;10.65;;;;;;;8.64;57.00;100223.34;4997586;28;20045;-70
2023/03/30 03:18:56;;;;;;;19.67;11.27;;;;;;;8.39;57.32;100220.94;4994928;28;20046;-70
2023/03/30 03:21:22;;;;;;;20.95;12.50;;;;;;;8.31;57.93;100216.84;4979886;28;20069;-70
2023/03/30 03:23:48;;;;;;;19.10;11.93;;;;;;;8.69;56.58;100216.16;4978305;28;20129;-70
2023/03/30 03:26:17;;;;;;;20.98;11.65;;;;;;;8.36;57.74;100211.50;4980157;28;20038;-70
2023/03/30 03:28:43;;;;;;;24.15;12.07;;;;;;;8.36;57.59;100208.88;4979358;28;20073;-70
2023/03/30 03:31:09;;;;;;;26.70;10.60;;;;;;;8.40;57.46;100204.38;4998052;28;20639;-71
2023/03/30 03:33:34;;;;;;;19.15;11.15;;;;;;;8.72;56.54;100200.47;4978891;28;20058;-69
2023/03/30 03:36:10;;;;;;;18.05;10.63;;;;;;;8.42;57.04;100203.41;4978126;28;20132;-70
2023/03/30 03:38:40;;;;;;;15.63;9.82;;;;;;;8.50;56.90;100196.13;4994661;28;20038;-69
2023/03/30 03:41:06;;;;;;;15.35;10.15;;;;;;;8.55;57.11;100194.16;4982585;28;20128;-70
2023/03/30 03:43:32;;;;;;;13.23;8.90;;;;;;;8.26;57.73;100186.72;4993739;28;20713;-70
2023/03/30 03:45:57;;;;;;;15.63;9.40;;;;;;;8.74;56.69;100194.25;4977366;28;20222;-71
2023/03/30 03:48:24;;;;;;;15.10;9.70;;;;;;;8.69;56.57;100187.50;4964410;28;20062;-72
2023/03/30 03:50:52;;;;;;;15.35;8.43;;;;;;;8.67;56.55;100187.59;4980362;28;20112;-76
2023/03/30 03:53:19;;;;;;;17.02;8.45;;;;;;;8.04;58.44;100187.59;4980918;28;20041;-78
2023/03/30 03:55:46;;;;;;;14.30;8.02;;;;;;;8.72;56.54;100179.63;4968273;28;20116;-78
2023/03/30 03:58:13;;;;;;;12.23;8.60;;;;;;;8.90;56.01;100178.81;4978695;28;20786;-77
2023/03/30 04:00:39;;;;;;;12.43;7.93;;;;;;;8.26;57.71;100166.75;4980489;28;20434;-77
2023/03/30 04:03:06;;;;;;;13.68;7.50;;;;;;;8.81;56.38;100157.50;4977256;28;20091;-72
2023/03/30 04:05:48;;;;;;;12.93;7.50;;;;;;;8.83;56.48;100156.53;4963979;28;20670;-76
2023/03/30 04:08:16;;;;;;;9.45;6.47;;;;;;;8.83;56.39;100161.75;4966094;28;20432;-75
2023/03/30 04:10:43;;;;;;;11.40;6.35;;;;;;;9.01;55.90;100165.31;4964288;28;20038;-75
2023/03/30 04:13:24;;;;;;;9.80;6.05;;;;;;;9.08;55.46;100164.09;4968131;28;20453;-74
2023/03/30 04:16:12;;;;;;;11.38;5.93;;;;;;;8.61;56.96;100158.38;4977534;28;21015;-75
2023/03/30 04:19:00;;;;;;;16.63;6.70;;;;;;;8.77;56.45;100154.19;4959769;28;20498;-71
2023/03/30 04:21:34;;;;;;;9.00;5.63;;;;;;;8.95;56.07;100161.19;4963469;28;20081;-77
2023/03/30 04:24:16;;;;;;;;;;;;;;;8.53;57.01;100164.72;4991233;28;20273;-77
2023/03/30 04:27:15;;;;;;;13.35;6.30;;;;;;;8.47;57.35;100159.78;4925783;28;19922;-73
2023/03/30 04:30:02;;;;;;;12.18;5.22;;;;;;;8.77;56.11;100156.81;4959345;28;20045;-76
2023/03/30 04:32:53;;;;;;;10.10;4.68;;;;;;;8.23;57.71;100153.03;4989755;28;20052;-76
2023/03/30 04:35:33;;;;;;;6.53;4.85;;;;;;;8.15;57.82;100156.75;4974752;28;20080;-73
2023/03/30 04:38:21;;;;;;;9.43;4.45;;;;;;;8.50;57.10;100158.81;4973330;28;20252;-77
2023/03/30 04:41:15;;;;;;;9.05;4.63;;;;;;;8.68;56.40;100165.00;4964094;28;20046;-75
2023/03/30 04:44:08;;;;;;;8.43;4.37;;;;;;;8.48;57.03;100160.63;4970358;28;20137;-72
2023/03/30 04:47:00;;;;;;;6.72;3.10;;;;;;;8.98;55.52;100166.28;4977922;28;20305;-72
2023/03/30 04:49:46;;;;;;;5.65;3.65;;;;;;;9.09;55.50;100162.34;4969080;28;20699;-71
2023/03/30 04:52:30;;;;;;;6.53;3.25;;;;;;;8.51;56.69;100155.28;4972424;28;20076;-70
2023/03/30 04:55:19;;;;;;;6.35;3.28;;;;;;;8.87;55.99;100157.22;4968041;28;20260;-70
2023/03/30 04:57:50;;;;;;;11.18;4.47;;;;;;;9.30;55.05;100145.72;4971927;28;20042;-69
2023/03/30 05:00:35;;;;;;;9.77;3.78;;;;;;;9.24;55.19;100146.00;4990823;28;20073;-72
2023/03/30 05:03:23;;;;;;;11.45;3.65;;;;;;;9.24;54.78;100132.97;4965888;28;20046;-72
2023/03/30 05:06:05;;;;;;;6.60;3.13;;;;;;;8.91;55.96;100133.56;4973095;28;20749;-71
2023/03/30 05:08:52;;;;;;;4.10;3.13;;;;;;;9.34;54.51;100141.19;4976051;28;20400;-72
2023/03/30 05:11:41;;;;;;;6.00;2.70;;;;;;;9.19;55.17;100142.75;4948714;28;20038;-71
2023/03/30 05:14:34;;;;;;;6.13;2.83;;;;;;;9.08;55.40;100150.22;4965224;28;20046;-69
2023/03/30 05:17:22;;;;;;;6.45;3.00;;;;;;;9.15;55.33;100142.03;4958392;28;20038;-71
2023/03/30 05:20:15;;;;;;;4.65;3.17;;;;;;;9.40;54.71;100141.75;4981537;28;20434;-72
2023/03/30 05:22:58;;;;;;;6.88;2.47;;;;;;;9.22;55.26;100150.44;4979820;28;20111;-70
2023/03/30 05:25:45;;;;;;;7.03;2.65;;;;;;;8.88;56.35;100151.13;4975297;28;20263;-71
2023/03/30 05:28:29;;;;;;;9.57;2.70;;;;;;;9.03;56.08;100141.75;4973311;28;20689;-69
2023/03/30 05:31:10;;;;;;;7.72;2.92;;;;;;;9.00;56.04;100136.69;4994380;28;20042;-69
2023/03/30 05:34:08;;;;;;;10.10;3.05;;;;;;;9.23;55.25;100139.09;4978798;28;20437;-75
2023/03/30 05:36:49;;;;;;;4.33;2.77;;;;;;;8.98;55.85;100144.56;4980342;28;20030;-74
2023/03/30 05:39:28;;;;;;;12.32;2.38;;;;;;;8.94;55.68;100137.78;4979133;28;20301;-72
2023/03/30 05:42:14;;;;;;;5.80;1.95;;;;;;;8.95;55.67;100140.34;4933868;28;20239;-73
2023/03/30 05:44:47;;;;;;;5.25;2.20;;;;;;;9.28;55.04;100138.91;4977574;28;20434;-71
2023/03/30 05:47:31;;;;;;;5.55;2.17;;;;;;;9.51;54.08;100143.03;4972573;28;20058;-72
2023/03/30 05:50:27;;;;;;;5.18;2.40;;;;;;;9.32;54.67;100138.69;4982215;28;20815;-71
2023/03/30 05:53:00;;;;;;;4.45;2.33;;;;;;;9.48;54.09;100138.81;4977012;28;20620;-68
2023/03/30 05:55:45;;;;;;;4.88;2.85;;;;;;;9.63;53.87;100137.22;4988617;28;20091;-72
2023/03/30 05:58:29;;;;;;;5.28;2.40;;;;;;;9.24;54.45;100137.34;4976812;28;20177;-72
2023/03/30 06:01:34;;;;;;;6.10;2.58;;;;;;;9.18;54.26;100134.06;4978529;28;20461;-70
2023/03/30 06:04:00;;;;;;;9.77;1.98;;;;;;;9.29;54.59;100137.97;4963243;28;20141;-71
2023/03/30 06:06:26;;;;;;;5.85;2.13;;;;;;;9.59;53.54;100136.53;4976191;28;20447;-73
2023/03/30 06:08:52;;;;;;;7.63;1.70;;;;;;;9.67;53.56;100133.53;4966829;28;20041;-70
2023/03/30 06:11:23;;;;;;;6.57;1.75;;;;;;;9.28;54.68;100137.13;4984687;28;20033;-72
2023/03/30 06:14:06;;;;;;;4.88;1.33;;;;;;;9.11;54.84;100129.22;4981514;28;20142;-69
2023/03/30 06:16:33;;;;;;;6.90;2.13;;;;;;;9.54;54.27;100135.91;4989990;28;20038;-71
2023/03/30 06:19:00;;;;;;;9.02;1.67;;;;;;;9.02;55.91;100133.09;4980230;28;20732;-69
2023/03/30 06:21:26;;;;;;;3.40;1.48;;;;;;;8.91;56.47;100133.56;4976366;28;20065;-70
2023/03/30 06:24:11;;;;;;;4.93;1.50;;;;;;;8.80;57.36;100130.59;4976324;28;20127;-71
2023/03/30 06:26:39;;;;;;;7.68;1.75;;;;;;;8.69;57.95;100127.59;4967556;28;20026;-70
2023/03/30 06:29:05;;;;;;;9.75;1.50;;;;;;;8.92;57.50;100124.84;4981711;28;20173;-71
2023/03/30 06:31:32;;;;;;;5.40;2.03;;;;;;;8.97;57.42;100122.88;4989592;28;20029;-69
2023/03/30 06:34:18;;;;;;;6.57;1.70;;;;;;;8.54;58.44;100124.75;4979302;28;20041;-72
2023/03/30 06:36:45;;;;;;;5.20;1.33;;;;;;;8.32;59.29;100126.59;4994872;28;20034;-73
2023/03/30 06:39:11;;;;;;;6.80;2.45;;;;;;;9.30;56.65;100130.06;4976473;28;20080;-69
2023/03/30 06:41:37;;;;;;;4.82;1.90;;;;;;;9.65;56.48;100126.72;4991336;28;20030;-70
2023/03/30 06:44:03;;;;;;;9.43;1.50;;;;;;;9.26;56.25;100123.31;4975551;28;20052;-69
2023/03/30 06:46:33;;;;;;;6.28;1.20;;;;;;;9.96;54.63;100126.09;4981182;28;20038;-68
2023/03/30 06:48:58;;;;;;;10.52;2.25;;;;;;;10.02;54.65;100117.97;4977199;28;20213;-69
2023/03/30 06:51:39;;;;;;;10.18;2.05;;;;;;;10.00;54.99;100120.66;4994091;28;20038;-69
2023/03/30 06:54:05;;;;;;;4.68;1.98;;;;;;;9.85;55.16;100112.72;4965423;28;20484;-69
2023/03/30 06:56:32;;;;;;;7.28;2.00;;;;;;;10.21;53.63;100112.66;4979640;28;20754;-69
2023/03/30 06:59:07;;;;;;;8.40;2.30;;;;;;;10.09;54.37;100116.72;4988988;28;20169;-70
2023/03/30 07:01:53;;;;;;;4.03;1.70;;;;;;;10.02;54.18;100117.97;4975034;28;21232;-68
2023/03/30 07:04:39;;;;;;;12.25;1.20;;;;;;;10.45;53.66;100123.63;4969534;28;20060;-70
2023/03/30 07:07:23;;;;;;;5.78;1.90;;;;;;;10.27;53.81;100121.97;4993097;28;20058;-71
2023/03/30 07:09:49;;;;;;;11.55;1.85;;;;;;;10.39;53.83;100116.09;4979278;28;20025;-69
2023/03/30 07:12:15;;;;;;;5.78;2.53;;;;;;;10.63;53.62;100120.03;4978093;28;20046;-69
2023/03/30 07:14:41;;;;;;;9.00;1.80;;;;;;;10.95;51.98;100120.16;4977262;28;20056;-70
2023/03/30 07:17:07;;;;;;;3.42;1.70;;;;;;;10.52;53.25;100124.16;4972612;28;20657;-70
2023/03/30 07:19:33;;;;;;;5.25;1.55;;;;;;;10.20;54.13;100122.25;4976454;28;20328;-68
2023/03/30 07:21:59;;;;;;;6.80;2.03;;;;;;;10.25;54.51;100124.63;4974620;28;20038;-68
2023/03/30 07:24:26;;;;;;;7.28;1.98;;;;;;;9.47;56.27;100107.56;4973100;28;20043;-69
2023/03/30 07:26:52;;;;;;;7.72;2.63;;;;;;;9.83;55.72;100114.56;4975011;28;20596;-68
2023/03/30 07:29:18;;;;;;;4.95;1.63;;;;;;;10.08;54.46;100106.34;4973394;28;20041;-69
2023/03/30 07:31:51;;;;;;;5.80;2.50;;;;;;;10.87;52.53;100117.13;4997023;28;20120;-69
2023/03/30 07:34:18;;;;;;;6.65;2.08;;;;;;;10.57;53.63;100116.91;4978337;28;20309;-70
2023/03/30 07:36:50;;;;;;;6.25;1.90;;;;;;;10.60;53.16;100115.00;4975190;28;20037;-69
2023/03/30 07:39:16;;;;;;;5.05;1.88;;;;;;;9.92;54.80;100114.09;4980087;28;20045;-69
2023/03/30 07:41:44;;;;;;;6.13;2.42;;;;;;;10.19;54.10;100107.53;4993953;28;20029;-70
2023/03/30 07:44:12;;;;;;;6.72;2.17;;;;;;;10.40;54.19;100117.81;4993563;28;20445;-71
2023/03/30 07:46:37;;;;;;;8.38;2.50;;;;;;;10.14;54.77;100104.28;4977203;28;20103;-70
2023/03/30 07:49:03;;;;;;;5.15;1.67;;;;;;;10.86;52.78;100119.78;4988657;28;20120;-70
2023/03/30 07:51:30;;;;;;;7.95;1.67;;;;;;;11.43;51.68;100121.03;4964890;28;20680;-70
2023/03/30 07:54:06;;;;;;;7.30;2.22;;;;;;;11.33;51.04;100119.84;4989389;28;20713;-71
2023/03/30 07:56:51;;;;;;;7.22;2.03;;;;;;;10.39;53.50;100129.16;4997281;28;20030;-71
2023/03/30 07:59:18;;;;;;;5.55;1.52;;;;;;;10.44;53.54;100129.78;4990425;28;20050;-70
2023/03/30 08:01:46;;;;;;;7.10;2.10;;;;;;;9.73;55.57;100154.13;4991926;28;20132;-71
2023/03/30 08:04:24;;;;;;;7.53;2.38;;;;;;;9.70;55.25;100128.19;4971783;28;20043;-71
2023/03/30 08:06:52;;;;;;;7.03;1.95;;;;;;;9.80;55.24;100133.84;4976840;28;20045;-70
2023/03/30 08:09:18;;;;;;;5.80;2.20;;;;;;;9.91;54.91;100131.53;4977094;28;20524;-71
2023/03/30 08:11:44;;;;;;;8.27;2.38;;;;;;;9.97;54.93;100139.09;4982017;28;20876;-71
2023/03/30 08:14:10;;;;;;;7.68;2.80;;;;;;;10.01;54.99;100142.38;4975158;28;20046;-70
2023/03/30 08:16:35;;;;;;;6.28;2.17;;;;;;;10.61;53.53;100142.81;4976853;28;20068;-71
2023/03/30 08:19:01;;;;;;;6.72;1.70;;;;;;;10.63;53.36;100145.34;4975539;28;20076;-71
2023/03/30 08:21:27;;;;;;;4.03;2.28;;;;;;;10.14;54.38;100138.22;4975794;28;20125;-71
2023/03/30 08:23:53;;;;;;;5.32;2.03;;;;;;;10.42;53.55;100142.06;4991682;28;20185;-71
2023/03/30 08:26:19;;;;;;;4.97;2.15;;;;;;;10.68;52.54;100147.72;4977856;28;20391;-71
2023/03/30 08:28:45;;;;;;;5.80;1.60;;;;;;;10.33;53.47;100142.56;4977834;28;20465;-70
2023/03/30 08:31:10;;;;;;;2.50;1.05;;;;;;;10.61;52.77;100149.81;4974856;28;20033;-71
2023/03/30 08:33:36;;;;;;;4.90;1.90;;;;;;;10.20;53.92;100155.38;4975389;28;20088;-70
2023/03/30 08:36:02;;;;;;;7.78;2.05;;;;;;;10.41;53.65;100151.69;4974588;28;20026;-71
2023/03/30 08:38:28;;;;;;;9.60;2.75;;;;;;;10.28;53.98;100153.22;4981369;28;20050;-71
2023/03/30 08:40:54;;;;;;;6.30;1.45;;;;;;;9.49;55.96;100166.56;4975412;28;20037;-69
2023/03/30 08:43:48;;;;;;;9.77;2.55;;;;;;;9.97;54.81;100159.13;4970459;28;20277;-71
2023/03/30 08:46:17;;;;;;;7.93;2.38;;;;;;;9.56;56.49;100154.06;4971222;28;20156;-70
2023/03/30 08:48:45;;;;;;;8.70;2.55;;;;;;;10.19;54.85;100154.53;4972250;28;20226;-69
2023/03/30 08:51:21;;;;;;;4.93;1.20;;;;;;;9.64;56.26;100159.78;4971205;28;20033;-70
2023/03/30 08:53:54;;;;;;;6.80;1.40;;;;;;;10.06;55.36;100166.50;4992152;28;20249;-69
2023/03/30 08:56:25;;;;;;;11.63;2.00;;;;;;;9.64;56.12;100165.00;4972554;28;20154;-70
2023/03/30 08:59:17;;;;;;;10.00;2.40;;;;;;;9.38;56.83;100174.03;4973566;28;20143;-72
2023/03/30 09:02:09;;;;;;;3.97;1.52;;;;;;;9.67;56.22;100185.72;4973191;28;20061;-70
2023/03/30 09:05:17;;;;;;;8.10;1.63;;;;;;;9.34;57.86;100182.91;4972793;28;20050;-70
2023/03/30 09:07:58;;;;;;;6.85;1.23;;;;;;;9.31;58.22;100176.09;4966621;28;20061;-68
2023/03/30 09:10:27;;;;;;;4.10;1.92;;;;;;;9.10;58.83;100180.53;4990214;28;20046;-69
2023/03/30 09:12:58;;;;;;;7.35;2.35;;;;;;;8.97;59.42;100185.44;4972669;28;20105;-68
2023/03/30 09:15:28;;;;;;;10.32;2.60;;;;;;;8.80;60.11;100179.28;4975792;28;20042;-68
2023/03/30 09:18:25;;;;;;;11.63;2.13;;;;;;;9.24;59.15;100177.28;4972457;28;20145;-70
2023/03/30 09:20:54;;;;;;;10.18;1.33;;;;;;;9.11;59.33;100177.00;4978891;28;20305;-70
2023/03/30 09:23:20;;;;;;;12.77;2.15;;;;;;;9.45;58.59;100177.22;4981237;28;20073;-69
2023/03/30 09:25:52;;;;;;;11.18;2.20;;;;;;;9.36;58.43;100197.56;4996027;28;20053;-70
2023/03/30 09:28:32;;;;;;;;;;;;;;;9.34;58.78;100189.00;4964097;28;20053;-68
2023/03/30 09:31:07;;;;;;;7.47;1.30;;;;;;;9.12;58.54;100186.53;4977550;28;20469;-71
2023/03/30 09:33:51;;;;;;;14.30;1.40;;;;;;;8.80;59.51;100192.28;4978897;28;20046;-71
2023/03/30 09:36:35;;;;;;;14.30;1.98;;;;;;;9.02;59.56;100192.22;4974640;28;20502;-72
2023/03/30 09:39:08;;;;;;;6.38;1.25;;;;;;;10.14;56.72;100185.22;4974861;28;20065;-72
2023/03/30 09:41:49;;;;;;;5.53;1.33;;;;;;;10.23;56.08;100194.38;4991144;28;20144;-71
2023/03/30 09:44:24;;;;;;;9.88;1.70;;;;;;;9.87;56.44;100204.84;4995143;28;20092;-72
2023/03/30 09:46:55;;;;;;;10.13;1.70;;;;;;;10.24;55.60;100201.31;4975117;28;20568;-71
2023/03/30 09:49:26;;;;;;;16.38;2.58;;;;;;;9.55;57.06;100208.03;4972682;28;20140;-71
2023/03/30 09:52:06;;;;;;;17.67;2.13;;;;;;;9.71;56.73;100213.38;4977174;28;20030;-71
2023/03/30 09:54:37;;;;;;;14.73;1.48;;;;;;;9.37;56.75;100196.69;4975449;28;21111;-68
2023/03/30 09:57:03;;;;;;;10.43;1.27;;;;;;;8.97;58.43;100205.44;4989240;28;20515;-69
2023/03/30 09:59:35;;;;;;;9.60;1.98;;;;;;;9.09;58.44;100209.25;4996761;28;20042;-71
2023/03/30 10:02:16;;;;;;;;;;;;;;;9.06;58.37;100212.00;4977179;28;20041;-71
2023/03/30 10:04:51;;;;;;;15.05;2.28;;;;;;;8.90;58.67;100220.50;4976558;28;19928;-72
2023/03/30 10:07:39;;;;;;;13.13;2.47;;;;;;;8.59;58.76;100218.31;4967404;28;20045;-71
2023/03/30 10:10:35;;;;;;;17.33;1.55;;;;;;;8.64;58.64;100205.94;4977923;28;20041;-70
2023/03/30 10:13:12;;;;;;;7.50;1.45;;;;;;;8.84;57.93;100215.53;4977600;28;20074;-71
2023/03/30 10:15:42;;;;;;;17.95;2.40;;;;;;;8.86;57.81;100218.94;4977706;28;20034;-72
2023/03/30 10:18:17;;;;;;;11.55;1.88;;;;;;;8.73;57.95;100228.19;4980908;28;20049;-73
2023/03/30 10:20:50;;;;;;;11.32;1.98;;;;;;;8.48;57.86;100226.59;4981746;28;20172;-72
2023/03/30 10:23:17;;;;;;;14.00;1.90;;;;;;;8.99;56.82;100229.69;4977353;28;20049;-72
2023/03/30 10:25:48;;;;;;;9.88;1.30;;;;;;;10.01;53.41;100226.78;4981878;28;20041;-71
2023/03/30 10:28:29;;;;;;;7.43;1.33;;;;;;;11.23;50.65;100223.28;4984611;28;20112;-72
2023/03/30 10:31:02;;;;;;;15.20;2.22;;;;;;;11.76;49.94;100214.31;5000412;28;20044;-72
2023/03/30 10:33:29;;;;;;;11.45;2.30;;;;;;;10.83;49.99;100214.91;4984039;28;20277;-69
2023/03/30 10:35:59;;;;;;;4.63;0.93;;;;;;;10.96;49.84;100220.38;4984548;28;20077;-70
2023/03/30 10:38:31;;;;;;;3.53;1.48;;;;;;;10.74;50.35;100213.59;4975623;28;20283;-72
2023/03/30 10:41:05;;;;;;;8.18;1.10;;;;;;;9.73;52.44;100221.97;4980902;28;20696;-71
2023/03/30 10:43:33;;;;;;;16.15;1.67;;;;;;;10.12;51.86;100207.97;4980939;28;20046;-72
2023/03/30 10:46:07;;;;;;;14.82;2.50;;;;;;;9.68;52.37;100213.53;4982038;28;20052;-72
2023/03/30 10:48:54;;;;;;;13.25;1.58;;;;;;;10.06;52.07;100213.50;5000148;28;20041;-71
2023/03/30 10:51:51;;;;;;;9.77;1.02;;;;;;;10.84;49.97;100216.63;4977530;28;20046;-72
2023/03/30 10:54:28;;;;;;;17.20;1.85;;;;;;;11.77;47.13;100191.59;4977053;28;20046;-71
2023/03/30 10:57:14;;;;;;;10.38;1.73;;;;;;;11.60;46.71;100210.84;4979074;28;20569;-71
2023/03/30 10:59:58;;;;;;;7.20;0.90;;;;;;;10.70;47.59;100213.81;4998203;28;20069;-72
2023/03/30 11:02:45;;;;;;;9.52;1.27;;;;;;;11.18;46.55;100214.84;4978350;28;20158;-71
2023/03/30 11:05:16;;;;;;;15.93;1.45;;;;;;;11.24;45.75;100210.16;4984242;28;20034;-71
2023/03/30 11:07:57;;;;;;;8.65;0.82;;;;;;;10.56;46.19;100228.44;4976427;28;20061;-71
2023/03/30 11:10:32;;;;;;;6.20;0.82;;;;;;;9.90;46.80;100208.19;4977996;28;20101;-71
2023/03/30 11:13:02;;;;;;;10.15;1.17;;;;;;;10.04;47.23;100224.94;4982218;28;20125;-71
2023/03/30 11:15:42;;;;;;;12.13;1.60;;;;;;;9.70;47.39;100227.34;4977512;28;20046;-72
2023/03/30 11:18:24;;;;;;;5.25;0.47;;;;;;;9.82;47.31;100227.72;4975239;28;20057;-71
2023/03/30 11:21:00;;;;;;;9.23;0.57;;;;;;;10.24;46.41;100231.81;4978296;28;20577;-71
2023/03/30 11:23:35;;;;;;;7.22;1.40;;;;;;;9.93;46.40;100239.34;4975738;28;20042;-70
2023/03/30 11:26:11;;;;;;;6.32;1.00;;;;;;;9.76;46.49;100226.19;4977751;28;20047;-72
2023/03/30 11:28:52;;;;;;;4.95;0.88;;;;;;;10.03;46.77;100239.75;4978133;28;20053;-72
2023/03/30 11:31:31;;;;;;;6.50;1.17;;;;;;;10.56;45.09;100244.09;4977989;28;20038;-72
2023/03/30 11:34:18;;;;;;;9.18;1.08;;;;;;;10.36;45.43;100236.41;4994512;28;20042;-73
2023/03/30 11:36:49;;;;;;;8.70;1.08;;;;;;;10.04;46.18;100225.78;4979999;28;20470;-72
2023/03/30 11:39:22;;;;;;;7.93;1.10;;;;;;;10.50;45.44;100241.78;4980077;28;20038;-72
2023/03/30 11:42:22;;;;;;;7.18;1.17;;;;;;;10.81;44.77;100237.66;4982192;28;20049;-73
2023/03/30 11:44:47;;;;;;;6.30;0.80;;;;;;;10.92;45.44;100239.75;4935837;28;20050;-72
2023/03/30 11:47:24;;;;;;;7.78;1.08;;;;;;;10.54;45.32;100243.34;4995465;28;20123;-74
2023/03/30 11:49:55;;;;;;;9.02;1.83;;;;;;;9.75;46.39;100248.84;4981498;28;20068;-68
2023/03/30 11:52:30;;;;;;;13.68;0.73;;;;;;;9.76;46.88;100237.47;4977518;28;21336;-72
2023/03/30 11:55:16;;;;;;;13.63;0.65;;;;;;;9.88;46.49;100259.59;4974052;28;20034;-71
2023/03/30 11:57:50;;;;;;;6.22;0.30;;;;;;;9.57;46.54;100252.31;4976970;28;20069;-71
2023/03/30 12:00:39;;;;;;;13.50;1.13;;;;;;;9.19;46.76;100245.28;4999941;28;20045;-70
2023/03/30 12:03:21;;;;;;;7.13;0.60;;;;;;;10.22;45.23;100256.22;4995579;28;20109;-70